sensor_id;sensor_type;location;lat;lon;timestamp;P1;durP1;ratioP1;P2;durP2;ratioP2
70270;SDS011;57680;54.292;18.598;2022-09-17T00:00:39;4.53;;;1.10;;
70270;SDS011;57680;54.292;18.598;2022-09-17T00:03:04;4.95;;;1.08;;
70270;SDS011;57680;54.292;18.598;2022-09-17T00:05:31;3.50;;;1.77;;
70270;SDS011;57680;54.292;18.598;2022-09-17T00:07:57;3.65;;;1.20;;
70270;SDS011;57680;54.292;18.598;2022-09-17T00:10:23;3.83;;;1.20;;
70270;SDS011;57680;54.292;18.598;2022-09-17T00:12:49;6.50;;;1.20;;
70270;SDS011;57680;54.292;18.598;2022-09-17T00:15:15;4.75;;;1.17;;
70270;SDS011;57680;54.292;18.598;2022-09-17T00:17:42;2.90;;;1.33;;
70270;SDS011;57680;54.292;18.598;2022-09-17T00:20:08;4.43;;;1.20;;
70270;SDS011;57680;54.292;18.598;2022-09-17T00:22:35;3.95;;;1.30;;
70270;SDS011;57680;54.292;18.598;2022-09-17T00:25:01;4.05;;;1.45;;
70270;SDS011;57680;54.292;18.598;2022-09-17T00:27:27;4.05;;;1.35;;
70270;SDS011;57680;54.292;18.598;2022-09-17T00:29:53;4.37;;;1.13;;
70270;SDS011;57680;54.292;18.598;2022-09-17T00:32:18;4.90;;;1.30;;
70270;SDS011;57680;54.292;18.598;2022-09-17T00:34:43;4.90;;;1.17;;
70270;SDS011;57680;54.292;18.598;2022-09-17T00:37:10;7.10;;;1.70;;
70270;SDS011;57680;54.292;18.598;2022-09-17T00:39:36;3.77;;;1.37;;
70270;SDS011;57680;54.292;18.598;2022-09-17T00:42:02;4.35;;;1.30;;
70270;SDS011;57680;54.292;18.598;2022-09-17T00:44:39;4.43;;;1.48;;
70270;SDS011;57680;54.292;18.598;2022-09-17T00:52:40;4.30;;;1.30;;
70270;SDS011;57680;54.292;18.598;2022-09-17T00:55:13;4.72;;;1.40;;
70270;SDS011;57680;54.292;18.598;2022-09-17T00:57:43;3.85;;;1.20;;
70270;SDS011;57680;54.292;18.598;2022-09-17T01:00:11;2.83;;;1.07;;
70270;SDS011;57680;54.292;18.598;2022-09-17T01:02:38;3.70;;;1.10;;
70270;SDS011;57680;54.292;18.598;2022-09-17T01:05:05;3.47;;;1.27;;
70270;SDS011;57680;54.292;18.598;2022-09-17T01:08:22;4.35;;;1.50;;
70270;SDS011;57680;54.292;18.598;2022-09-17T01:21:23;5.03;;;1.30;;
70270;SDS011;57680;54.292;18.598;2022-09-17T01:31:58;3.97;;;1.33;;
70270;SDS011;57680;54.292;18.598;2022-09-17T01:34:39;4.78;;;1.50;;
70270;SDS011;57680;54.292;18.598;2022-09-17T01:39:55;3.50;;;1.40;;
70270;SDS011;57680;54.292;18.598;2022-09-17T01:42:26;3.35;;;1.38;;
70270;SDS011;57680;54.292;18.598;2022-09-17T01:47:43;3.85;;;1.40;;
70270;SDS011;57680;54.292;18.598;2022-09-17T01:50:16;4.17;;;1.27;;
70270;SDS011;57680;54.292;18.598;2022-09-17T01:52:46;6.10;;;1.60;;
70270;SDS011;57680;54.292;18.598;2022-09-17T01:55:16;4.88;;;1.50;;
70270;SDS011;57680;54.292;18.598;2022-09-17T01:57:45;4.15;;;1.40;;
70270;SDS011;57680;54.292;18.598;2022-09-17T02:00:12;4.20;;;1.40;;
70270;SDS011;57680;54.292;18.598;2022-09-17T02:08:25;4.05;;;1.20;;
70270;SDS011;57680;54.292;18.598;2022-09-17T02:10:58;3.72;;;1.40;;
70270;SDS011;57680;54.292;18.598;2022-09-17T02:16:19;3.17;;;1.00;;
70270;SDS011;57680;54.292;18.598;2022-09-17T02:18:50;4.88;;;1.20;;
70270;SDS011;57680;54.292;18.598;2022-09-17T02:21:29;4.07;;;0.90;;
70270;SDS011;57680;54.292;18.598;2022-09-17T02:24:16;3.63;;;0.80;;
70270;SDS011;57680;54.292;18.598;2022-09-17T02:26:49;3.00;;;1.00;;
70270;SDS011;57680;54.292;18.598;2022-09-17T02:29:22;2.93;;;1.17;;
70270;SDS011;57680;54.292;18.598;2022-09-17T02:31:59;3.20;;;1.00;;
70270;SDS011;57680;54.292;18.598;2022-09-17T02:34:26;4.13;;;1.27;;
70270;SDS011;57680;54.292;18.598;2022-09-17T02:36:53;2.67;;;0.80;;
70270;SDS011;57680;54.292;18.598;2022-09-17T02:39:20;4.20;;;1.00;;
70270;SDS011;57680;54.292;18.598;2022-09-17T02:44:33;3.22;;;1.10;;
70270;SDS011;57680;54.292;18.598;2022-09-17T02:58:44;4.63;;;1.35;;
70270;SDS011;57680;54.292;18.598;2022-09-17T03:01:29;4.70;;;1.45;;
70270;SDS011;57680;54.292;18.598;2022-09-17T03:03:59;4.10;;;1.10;;
70270;SDS011;57680;54.292;18.598;2022-09-17T03:06:28;3.80;;;0.90;;
70270;SDS011;57680;54.292;18.598;2022-09-17T03:08:54;3.85;;;1.15;;
70270;SDS011;57680;54.292;18.598;2022-09-17T03:11:21;3.63;;;1.10;;
70270;SDS011;57680;54.292;18.598;2022-09-17T03:13:46;5.82;;;1.10;;
70270;SDS011;57680;54.292;18.598;2022-09-17T03:16:12;3.83;;;1.23;;
70270;SDS011;57680;54.292;18.598;2022-09-17T03:18:38;8.70;;;1.20;;
70270;SDS011;57680;54.292;18.598;2022-09-17T03:21:04;4.43;;;1.53;;
70270;SDS011;57680;54.292;18.598;2022-09-17T03:23:29;4.10;;;1.05;;
70270;SDS011;57680;54.292;18.598;2022-09-17T03:25:55;5.23;;;1.20;;
70270;SDS011;57680;54.292;18.598;2022-09-17T03:28:20;3.83;;;1.10;;
70270;SDS011;57680;54.292;18.598;2022-09-17T03:30:46;3.05;;;1.13;;
70270;SDS011;57680;54.292;18.598;2022-09-17T03:33:12;2.60;;;1.20;;
70270;SDS011;57680;54.292;18.598;2022-09-17T03:35:41;3.97;;;1.15;;
70270;SDS011;57680;54.292;18.598;2022-09-17T03:38:07;3.67;;;1.00;;
70270;SDS011;57680;54.292;18.598;2022-09-17T03:40:33;3.13;;;1.07;;
70270;SDS011;57680;54.292;18.598;2022-09-17T03:42:58;2.60;;;1.00;;
70270;SDS011;57680;54.292;18.598;2022-09-17T03:45:24;3.43;;;0.93;;
70270;SDS011;57680;54.292;18.598;2022-09-17T03:47:49;2.37;;;1.00;;
70270;SDS011;57680;54.292;18.598;2022-09-17T03:50:15;3.92;;;0.80;;
70270;SDS011;57680;54.292;18.598;2022-09-17T03:52:41;3.20;;;0.80;;
70270;SDS011;57680;54.292;18.598;2022-09-17T03:55:08;2.78;;;0.70;;
70270;SDS011;57680;54.292;18.598;2022-09-17T03:57:33;2.30;;;0.70;;
70270;SDS011;57680;54.292;18.598;2022-09-17T03:59:59;3.00;;;0.70;;
70270;SDS011;57680;54.292;18.598;2022-09-17T04:02:25;2.67;;;0.87;;
70270;SDS011;57680;54.292;18.598;2022-09-17T04:04:50;4.18;;;0.88;;
70270;SDS011;57680;54.292;18.598;2022-09-17T04:07:17;2.53;;;0.80;;
70270;SDS011;57680;54.292;18.598;2022-09-17T04:09:42;2.00;;;0.70;;
70270;SDS011;57680;54.292;18.598;2022-09-17T04:12:08;2.87;;;0.70;;
70270;SDS011;57680;54.292;18.598;2022-09-17T04:14:33;2.05;;;0.70;;
70270;SDS011;57680;54.292;18.598;2022-09-17T04:16:59;3.43;;;1.00;;
70270;SDS011;57680;54.292;18.598;2022-09-17T04:19:24;3.33;;;0.80;;
70270;SDS011;57680;54.292;18.598;2022-09-17T04:21:50;2.47;;;0.90;;
70270;SDS011;57680;54.292;18.598;2022-09-17T04:24:15;3.77;;;1.10;;
70270;SDS011;57680;54.292;18.598;2022-09-17T04:26:41;3.00;;;1.07;;
70270;SDS011;57680;54.292;18.598;2022-09-17T04:29:06;3.38;;;1.10;;
70270;SDS011;57680;54.292;18.598;2022-09-17T04:31:32;3.17;;;1.10;;
70270;SDS011;57680;54.292;18.598;2022-09-17T04:33:57;2.53;;;0.90;;
70270;SDS011;57680;54.292;18.598;2022-09-17T04:36:23;4.38;;;1.48;;
70270;SDS011;57680;54.292;18.598;2022-09-17T04:38:48;5.40;;;1.37;;
70270;SDS011;57680;54.292;18.598;2022-09-17T04:41:14;3.57;;;1.20;;
70270;SDS011;57680;54.292;18.598;2022-09-17T04:43:40;6.38;;;1.67;;
70270;SDS011;57680;54.292;18.598;2022-09-17T04:46:05;4.10;;;1.50;;
70270;SDS011;57680;54.292;18.598;2022-09-17T04:48:31;6.13;;;1.40;;
70270;SDS011;57680;54.292;18.598;2022-09-17T04:50:57;3.53;;;1.40;;
70270;SDS011;57680;54.292;18.598;2022-09-17T04:53:22;4.37;;;1.77;;
70270;SDS011;57680;54.292;18.598;2022-09-17T04:55:48;4.07;;;1.50;;
70270;SDS011;57680;54.292;18.598;2022-09-17T04:58:14;4.70;;;1.70;;
70270;SDS011;57680;54.292;18.598;2022-09-17T05:00:39;5.13;;;1.77;;
70270;SDS011;57680;54.292;18.598;2022-09-17T05:03:06;3.17;;;1.65;;
70270;SDS011;57680;54.292;18.598;2022-09-17T05:05:32;5.33;;;1.60;;
70270;SDS011;57680;54.292;18.598;2022-09-17T05:07:57;5.72;;;1.70;;
70270;SDS011;57680;54.292;18.598;2022-09-17T05:10:23;4.13;;;1.63;;
70270;SDS011;57680;54.292;18.598;2022-09-17T05:12:53;3.13;;;1.40;;
70270;SDS011;57680;54.292;18.598;2022-09-17T05:15:19;4.82;;;1.73;;
70270;SDS011;57680;54.292;18.598;2022-09-17T05:17:46;3.73;;;1.43;;
70270;SDS011;57680;54.292;18.598;2022-09-17T05:20:11;3.67;;;1.48;;
70270;SDS011;57680;54.292;18.598;2022-09-17T05:22:45;3.50;;;1.40;;
70270;SDS011;57680;54.292;18.598;2022-09-17T05:25:12;3.70;;;1.30;;
70270;SDS011;57680;54.292;18.598;2022-09-17T05:27:39;4.55;;;1.50;;
70270;SDS011;57680;54.292;18.598;2022-09-17T05:30:05;3.88;;;1.58;;
70270;SDS011;57680;54.292;18.598;2022-09-17T05:32:31;3.40;;;1.20;;
70270;SDS011;57680;54.292;18.598;2022-09-17T05:34:57;3.83;;;1.40;;
70270;SDS011;57680;54.292;18.598;2022-09-17T05:37:22;5.20;;;1.65;;
70270;SDS011;57680;54.292;18.598;2022-09-17T05:39:48;3.80;;;1.40;;
70270;SDS011;57680;54.292;18.598;2022-09-17T05:42:13;3.83;;;1.67;;
70270;SDS011;57680;54.292;18.598;2022-09-17T05:44:39;4.77;;;1.80;;
70270;SDS011;57680;54.292;18.598;2022-09-17T05:47:05;4.13;;;1.87;;
70270;SDS011;57680;54.292;18.598;2022-09-17T05:49:30;5.07;;;2.03;;
70270;SDS011;57680;54.292;18.598;2022-09-17T05:51:56;5.73;;;1.57;;
70270;SDS011;57680;54.292;18.598;2022-09-17T05:54:21;3.50;;;1.57;;
70270;SDS011;57680;54.292;18.598;2022-09-17T05:56:47;3.60;;;1.60;;
70270;SDS011;57680;54.292;18.598;2022-09-17T05:59:17;3.92;;;1.60;;
70270;SDS011;57680;54.292;18.598;2022-09-17T06:01:43;3.70;;;1.80;;
70270;SDS011;57680;54.292;18.598;2022-09-17T06:04:09;5.13;;;2.00;;
70270;SDS011;57680;54.292;18.598;2022-09-17T06:06:34;4.97;;;1.70;;
70270;SDS011;57680;54.292;18.598;2022-09-17T06:09:01;3.78;;;1.60;;
70270;SDS011;57680;54.292;18.598;2022-09-17T06:11:27;4.00;;;1.75;;
70270;SDS011;57680;54.292;18.598;2022-09-17T06:13:53;4.27;;;1.70;;
70270;SDS011;57680;54.292;18.598;2022-09-17T06:16:20;4.10;;;1.65;;
70270;SDS011;57680;54.292;18.598;2022-09-17T06:18:46;5.18;;;1.95;;
70270;SDS011;57680;54.292;18.598;2022-09-17T06:21:14;4.30;;;1.90;;
70270;SDS011;57680;54.292;18.598;2022-09-17T06:23:41;3.97;;;1.70;;
70270;SDS011;57680;54.292;18.598;2022-09-17T06:26:07;5.57;;;1.60;;
70270;SDS011;57680;54.292;18.598;2022-09-17T06:28:33;4.00;;;1.80;;
70270;SDS011;57680;54.292;18.598;2022-09-17T06:31:00;5.57;;;1.95;;
70270;SDS011;57680;54.292;18.598;2022-09-17T06:33:27;5.40;;;1.73;;
70270;SDS011;57680;54.292;18.598;2022-09-17T06:36:01;4.63;;;2.05;;
70270;SDS011;57680;54.292;18.598;2022-09-17T06:38:29;5.47;;;2.45;;
70270;SDS011;57680;54.292;18.598;2022-09-17T06:40:56;5.75;;;2.00;;
70270;SDS011;57680;54.292;18.598;2022-09-17T06:43:22;4.93;;;2.00;;
70270;SDS011;57680;54.292;18.598;2022-09-17T06:48:16;5.28;;;1.90;;
70270;SDS011;57680;54.292;18.598;2022-09-17T06:50:42;4.97;;;1.97;;
70270;SDS011;57680;54.292;18.598;2022-09-17T06:53:08;5.00;;;1.85;;
70270;SDS011;57680;54.292;18.598;2022-09-17T06:55:33;4.85;;;1.95;;
70270;SDS011;57680;54.292;18.598;2022-09-17T06:57:59;4.37;;;1.87;;
70270;SDS011;57680;54.292;18.598;2022-09-17T07:00:25;4.90;;;2.20;;
70270;SDS011;57680;54.292;18.598;2022-09-17T07:02:55;4.30;;;1.80;;
70270;SDS011;57680;54.292;18.598;2022-09-17T07:05:25;3.92;;;1.60;;
70270;SDS011;57680;54.292;18.598;2022-09-17T07:07:51;4.95;;;2.05;;
70270;SDS011;57680;54.292;18.598;2022-09-17T07:10:17;4.30;;;1.52;;
70270;SDS011;57680;54.292;18.598;2022-09-17T07:12:43;4.50;;;1.60;;
70270;SDS011;57680;54.292;18.598;2022-09-17T07:15:09;5.18;;;1.95;;
70270;SDS011;57680;54.292;18.598;2022-09-17T07:17:36;4.88;;;1.90;;
70270;SDS011;57680;54.292;18.598;2022-09-17T07:20:04;4.70;;;1.60;;
70270;SDS011;57680;54.292;18.598;2022-09-17T07:22:31;3.60;;;1.63;;
70270;SDS011;57680;54.292;18.598;2022-09-17T07:24:56;5.03;;;2.40;;
70270;SDS011;57680;54.292;18.598;2022-09-17T07:27:22;4.07;;;2.03;;
70270;SDS011;57680;54.292;18.598;2022-09-17T07:29:47;3.57;;;1.53;;
70270;SDS011;57680;54.292;18.598;2022-09-17T07:32:13;4.35;;;1.50;;
70270;SDS011;57680;54.292;18.598;2022-09-17T07:34:38;4.33;;;1.30;;
70270;SDS011;57680;54.292;18.598;2022-09-17T07:37:04;5.27;;;1.70;;
70270;SDS011;57680;54.292;18.598;2022-09-17T07:39:29;4.15;;;2.13;;
70270;SDS011;57680;54.292;18.598;2022-09-17T07:41:55;3.93;;;1.60;;
70270;SDS011;57680;54.292;18.598;2022-09-17T07:44:21;3.97;;;1.50;;
70270;SDS011;57680;54.292;18.598;2022-09-17T07:46:46;3.83;;;1.30;;
70270;SDS011;57680;54.292;18.598;2022-09-17T07:49:12;3.40;;;1.40;;
70270;SDS011;57680;54.292;18.598;2022-09-17T07:51:38;4.35;;;1.50;;
70270;SDS011;57680;54.292;18.598;2022-09-17T07:54:03;4.53;;;1.60;;
70270;SDS011;57680;54.292;18.598;2022-09-17T07:56:30;5.47;;;1.58;;
70270;SDS011;57680;54.292;18.598;2022-09-17T07:58:55;5.03;;;1.63;;
70270;SDS011;57680;54.292;18.598;2022-09-17T08:01:21;5.05;;;2.00;;
70270;SDS011;57680;54.292;18.598;2022-09-17T08:03:48;3.93;;;1.47;;
70270;SDS011;57680;54.292;18.598;2022-09-17T08:06:15;3.97;;;1.40;;
70270;SDS011;57680;54.292;18.598;2022-09-17T08:08:44;2.67;;;1.15;;
70270;SDS011;57680;54.292;18.598;2022-09-17T08:11:11;3.87;;;1.40;;
70270;SDS011;57680;54.292;18.598;2022-09-17T08:13:38;3.38;;;1.65;;
70270;SDS011;57680;54.292;18.598;2022-09-17T08:16:04;2.50;;;1.30;;
70270;SDS011;57680;54.292;18.598;2022-09-17T08:18:32;3.75;;;1.23;;
70270;SDS011;57680;54.292;18.598;2022-09-17T08:21:00;4.22;;;1.40;;
70270;SDS011;57680;54.292;18.598;2022-09-17T08:23:27;4.10;;;1.43;;
70270;SDS011;57680;54.292;18.598;2022-09-17T08:25:55;4.95;;;1.30;;
70270;SDS011;57680;54.292;18.598;2022-09-17T08:28:22;4.78;;;1.60;;
70270;SDS011;57680;54.292;18.598;2022-09-17T08:30:50;4.20;;;1.65;;
70270;SDS011;57680;54.292;18.598;2022-09-17T08:33:16;4.20;;;1.50;;
70270;SDS011;57680;54.292;18.598;2022-09-17T08:35:42;4.20;;;1.70;;
70270;SDS011;57680;54.292;18.598;2022-09-17T08:38:14;3.92;;;1.40;;
70270;SDS011;57680;54.292;18.598;2022-09-17T08:40:42;3.50;;;1.50;;
70270;SDS011;57680;54.292;18.598;2022-09-17T08:43:16;3.87;;;1.50;;
70270;SDS011;57680;54.292;18.598;2022-09-17T08:45:43;4.10;;;1.90;;
70270;SDS011;57680;54.292;18.598;2022-09-17T08:48:09;4.97;;;1.80;;
70270;SDS011;57680;54.292;18.598;2022-09-17T08:50:38;5.43;;;1.70;;
70270;SDS011;57680;54.292;18.598;2022-09-17T09:01:11;5.22;;;1.90;;
70270;SDS011;57680;54.292;18.598;2022-09-17T09:06:50;5.13;;;1.67;;
70270;SDS011;57680;54.292;18.598;2022-09-17T09:09:24;4.68;;;1.60;;
70270;SDS011;57680;54.292;18.598;2022-09-17T09:11:57;4.40;;;1.70;;
70270;SDS011;57680;54.292;18.598;2022-09-17T09:14:35;3.88;;;1.50;;
70270;SDS011;57680;54.292;18.598;2022-09-17T09:17:08;8.63;;;3.73;;
70270;SDS011;57680;54.292;18.598;2022-09-17T09:19:41;5.85;;;2.63;;
70270;SDS011;57680;54.292;18.598;2022-09-17T09:35:49;3.70;;;1.40;;
70270;SDS011;57680;54.292;18.598;2022-09-17T09:38:02;4.82;;;1.30;;
70270;SDS011;57680;54.292;18.598;2022-09-17T09:40:45;6.78;;;1.63;;
70270;SDS011;57680;54.292;18.598;2022-09-17T09:43:34;4.50;;;1.40;;
70270;SDS011;57680;54.292;18.598;2022-09-17T09:46:13;4.65;;;1.40;;
70270;SDS011;57680;54.292;18.598;2022-09-17T09:54:36;4.18;;;1.40;;
70270;SDS011;57680;54.292;18.598;2022-09-17T09:58:10;4.15;;;1.60;;
70270;SDS011;57680;54.292;18.598;2022-09-17T10:00:23;3.30;;;1.30;;
70270;SDS011;57680;54.292;18.598;2022-09-17T10:05:59;2.72;;;1.08;;
70270;SDS011;57680;54.292;18.598;2022-09-17T10:08:28;4.82;;;1.38;;
70270;SDS011;57680;54.292;18.598;2022-09-17T10:13:34;2.83;;;1.02;;
70270;SDS011;57680;54.292;18.598;2022-09-17T10:18:42;3.05;;;1.30;;
70270;SDS011;57680;54.292;18.598;2022-09-17T10:21:18;2.35;;;1.00;;
70270;SDS011;57680;54.292;18.598;2022-09-17T10:23:45;3.47;;;0.95;;
70270;SDS011;57680;54.292;18.598;2022-09-17T10:29:16;2.63;;;0.90;;
70270;SDS011;57680;54.292;18.598;2022-09-17T10:31:51;1.63;;;0.70;;
70270;SDS011;57680;54.292;18.598;2022-09-17T10:34:19;2.70;;;0.80;;
70270;SDS011;57680;54.292;18.598;2022-09-17T10:36:50;3.03;;;0.75;;
70270;SDS011;57680;54.292;18.598;2022-09-17T10:39:22;3.17;;;0.90;;
70270;SDS011;57680;54.292;18.598;2022-09-17T10:44:25;2.15;;;0.70;;
70270;SDS011;57680;54.292;18.598;2022-09-17T10:47:00;1.73;;;0.68;;
70270;SDS011;57680;54.292;18.598;2022-09-17T10:49:53;2.00;;;0.83;;
70270;SDS011;57680;54.292;18.598;2022-09-17T10:52:22;2.17;;;0.65;;
70270;SDS011;57680;54.292;18.598;2022-09-17T11:00:37;2.17;;;0.50;;
70270;SDS011;57680;54.292;18.598;2022-09-17T11:06:12;2.08;;;0.80;;
70270;SDS011;57680;54.292;18.598;2022-09-17T11:20:03;1.23;;;0.30;;
70270;SDS011;57680;54.292;18.598;2022-09-17T11:31:12;3.17;;;0.60;;
70270;SDS011;57680;54.292;18.598;2022-09-17T11:33:48;2.75;;;0.57;;
70270;SDS011;57680;54.292;18.598;2022-09-17T11:36:36;2.13;;;0.70;;
70270;SDS011;57680;54.292;18.598;2022-09-17T11:39:12;3.13;;;0.80;;
70270;SDS011;57680;54.292;18.598;2022-09-17T11:41:43;2.58;;;1.00;;
70270;SDS011;57680;54.292;18.598;2022-09-17T11:44:18;2.27;;;0.70;;
70270;SDS011;57680;54.292;18.598;2022-09-17T11:47:00;3.88;;;0.98;;
70270;SDS011;57680;54.292;18.598;2022-09-17T11:49:33;2.17;;;1.00;;
70270;SDS011;57680;54.292;18.598;2022-09-17T11:52:08;2.20;;;0.80;;
70270;SDS011;57680;54.292;18.598;2022-09-17T11:54:47;2.33;;;0.95;;
70270;SDS011;57680;54.292;18.598;2022-09-17T11:57:15;2.90;;;0.80;;
70270;SDS011;57680;54.292;18.598;2022-09-17T12:00:03;2.50;;;0.90;;
70270;SDS011;57680;54.292;18.598;2022-09-17T12:05:17;3.00;;;0.82;;
70270;SDS011;57680;54.292;18.598;2022-09-17T12:13:02;1.35;;;0.50;;
70270;SDS011;57680;54.292;18.598;2022-09-17T12:15:39;1.30;;;0.50;;
70270;SDS011;57680;54.292;18.598;2022-09-17T12:20:48;2.08;;;0.70;;
70270;SDS011;57680;54.292;18.598;2022-09-17T12:23:39;1.30;;;0.47;;
70270;SDS011;57680;54.292;18.598;2022-09-17T12:31:41;1.30;;;0.50;;
70270;SDS011;57680;54.292;18.598;2022-09-17T12:34:20;2.38;;;0.90;;
70270;SDS011;57680;54.292;18.598;2022-09-17T12:37:10;2.25;;;0.70;;
70270;SDS011;57680;54.292;18.598;2022-09-17T12:39:46;2.15;;;0.43;;
70270;SDS011;57680;54.292;18.598;2022-09-17T12:45:21;2.15;;;0.52;;
70270;SDS011;57680;54.292;18.598;2022-09-17T12:53:41;1.48;;;0.40;;
70270;SDS011;57680;54.292;18.598;2022-09-17T12:59:09;2.10;;;0.60;;
70270;SDS011;57680;54.292;18.598;2022-09-17T13:04:13;2.33;;;0.50;;
70270;SDS011;57680;54.292;18.598;2022-09-17T13:12:52;4.18;;;0.82;;
70270;SDS011;57680;54.292;18.598;2022-09-17T13:15:49;2.22;;;0.50;;
70270;SDS011;57680;54.292;18.598;2022-09-17T13:18:39;2.55;;;0.50;;
70270;SDS011;57680;54.292;18.598;2022-09-17T13:21:20;1.50;;;0.40;;
70270;SDS011;57680;54.292;18.598;2022-09-17T13:23:55;2.97;;;0.70;;
70270;SDS011;57680;54.292;18.598;2022-09-17T13:26:31;2.13;;;0.50;;
70270;SDS011;57680;54.292;18.598;2022-09-17T13:28:59;1.90;;;0.60;;
70270;SDS011;57680;54.292;18.598;2022-09-17T13:34:03;2.20;;;0.60;;
70270;SDS011;57680;54.292;18.598;2022-09-17T13:36:53;3.47;;;0.60;;
70270;SDS011;57680;54.292;18.598;2022-09-17T13:39:34;2.45;;;0.55;;
70270;SDS011;57680;54.292;18.598;2022-09-17T13:45:09;2.22;;;0.40;;
70270;SDS011;57680;54.292;18.598;2022-09-17T13:47:53;2.72;;;0.50;;
70270;SDS011;57680;54.292;18.598;2022-09-17T14:00:53;2.58;;;0.60;;
70270;SDS011;57680;54.292;18.598;2022-09-17T14:08:27;4.18;;;0.88;;
70270;SDS011;57680;54.292;18.598;2022-09-17T14:22:09;2.90;;;0.70;;
70270;SDS011;57680;54.292;18.598;2022-09-17T14:27:10;2.63;;;0.80;;
70270;SDS011;57680;54.292;18.598;2022-09-17T14:35:20;2.15;;;0.60;;
70270;SDS011;57680;54.292;18.598;2022-09-17T14:37:52;3.30;;;0.60;;
70270;SDS011;57680;54.292;18.598;2022-09-17T14:40:23;1.88;;;0.60;;
70270;SDS011;57680;54.292;18.598;2022-09-17T14:42:51;1.97;;;0.60;;
70270;SDS011;57680;54.292;18.598;2022-09-17T14:45:23;2.45;;;0.80;;
70270;SDS011;57680;54.292;18.598;2022-09-17T14:50:44;2.85;;;0.40;;
70270;SDS011;57680;54.292;18.598;2022-09-17T14:53:14;3.22;;;0.50;;
70270;SDS011;57680;54.292;18.598;2022-09-17T14:55:42;2.37;;;0.40;;
70270;SDS011;57680;54.292;18.598;2022-09-17T14:58:29;3.85;;;0.52;;
70270;SDS011;57680;54.292;18.598;2022-09-17T15:00:59;1.73;;;0.45;;
70270;SDS011;57680;54.292;18.598;2022-09-17T15:03:24;2.87;;;0.70;;
70270;SDS011;57680;54.292;18.598;2022-09-17T15:05:50;2.53;;;0.80;;
70270;SDS011;57680;54.292;18.598;2022-09-17T15:08:17;1.67;;;0.60;;
70270;SDS011;57680;54.292;18.598;2022-09-17T15:10:49;2.28;;;0.40;;
70270;SDS011;57680;54.292;18.598;2022-09-17T15:13:20;3.10;;;0.60;;
70270;SDS011;57680;54.292;18.598;2022-09-17T15:15:50;2.33;;;0.60;;
70270;SDS011;57680;54.292;18.598;2022-09-17T15:18:46;2.78;;;0.80;;
70270;SDS011;57680;54.292;18.598;2022-09-17T15:23:48;3.47;;;0.70;;
70270;SDS011;57680;54.292;18.598;2022-09-17T15:26:16;2.85;;;0.65;;
70270;SDS011;57680;54.292;18.598;2022-09-17T15:28:47;3.25;;;0.88;;
70270;SDS011;57680;54.292;18.598;2022-09-17T15:31:17;4.85;;;0.95;;
70270;SDS011;57680;54.292;18.598;2022-09-17T15:33:44;2.77;;;0.80;;
70270;SDS011;57680;54.292;18.598;2022-09-17T15:36:24;2.65;;;0.70;;
70270;SDS011;57680;54.292;18.598;2022-09-17T15:38:55;2.42;;;0.90;;
70270;SDS011;57680;54.292;18.598;2022-09-17T15:43:50;3.22;;;0.82;;
70270;SDS011;57680;54.292;18.598;2022-09-17T15:46:24;2.83;;;0.73;;
70270;SDS011;57680;54.292;18.598;2022-09-17T15:48:51;4.45;;;1.00;;
70270;SDS011;57680;54.292;18.598;2022-09-17T15:51:23;2.70;;;0.60;;
70270;SDS011;57680;54.292;18.598;2022-09-17T15:53:57;2.77;;;0.80;;
70270;SDS011;57680;54.292;18.598;2022-09-17T15:56:37;3.00;;;0.60;;
70270;SDS011;57680;54.292;18.598;2022-09-17T15:59:15;3.65;;;1.10;;
70270;SDS011;57680;54.292;18.598;2022-09-17T16:01:49;3.75;;;0.90;;
70270;SDS011;57680;54.292;18.598;2022-09-17T16:04:18;3.50;;;1.10;;
70270;SDS011;57680;54.292;18.598;2022-09-17T16:06:47;5.00;;;1.70;;
70270;SDS011;57680;54.292;18.598;2022-09-17T16:12:04;5.35;;;1.27;;
70270;SDS011;57680;54.292;18.598;2022-09-17T16:14:30;6.03;;;1.50;;
70270;SDS011;57680;54.292;18.598;2022-09-17T16:16:56;5.30;;;1.30;;
70270;SDS011;57680;54.292;18.598;2022-09-17T16:19:23;3.42;;;1.00;;
70270;SDS011;57680;54.292;18.598;2022-09-17T16:21:49;3.67;;;1.20;;
70270;SDS011;57680;54.292;18.598;2022-09-17T16:24:15;3.60;;;1.10;;
70270;SDS011;57680;54.292;18.598;2022-09-17T16:26:40;5.53;;;1.20;;
70270;SDS011;57680;54.292;18.598;2022-09-17T16:29:09;4.75;;;1.30;;
70270;SDS011;57680;54.292;18.598;2022-09-17T16:31:38;3.92;;;1.30;;
70270;SDS011;57680;54.292;18.598;2022-09-17T16:34:03;4.43;;;1.67;;
70270;SDS011;57680;54.292;18.598;2022-09-17T16:36:29;4.82;;;1.30;;
70270;SDS011;57680;54.292;18.598;2022-09-17T16:38:56;5.00;;;1.43;;
70270;SDS011;57680;54.292;18.598;2022-09-17T16:41:22;5.38;;;1.50;;
70270;SDS011;57680;54.292;18.598;2022-09-17T16:43:48;5.35;;;1.35;;
70270;SDS011;57680;54.292;18.598;2022-09-17T16:46:13;5.63;;;1.90;;
70270;SDS011;57680;54.292;18.598;2022-09-17T16:48:39;5.83;;;1.87;;
70270;SDS011;57680;54.292;18.598;2022-09-17T16:51:10;5.82;;;2.00;;
70270;SDS011;57680;54.292;18.598;2022-09-17T16:53:36;5.03;;;1.88;;
70270;SDS011;57680;54.292;18.598;2022-09-17T16:56:05;5.40;;;1.27;;
70270;SDS011;57680;54.292;18.598;2022-09-17T16:58:32;4.75;;;1.40;;
70270;SDS011;57680;54.292;18.598;2022-09-17T17:01:04;4.30;;;1.50;;
70270;SDS011;57680;54.292;18.598;2022-09-17T17:03:33;4.30;;;1.50;;
70270;SDS011;57680;54.292;18.598;2022-09-17T17:05:58;4.73;;;1.60;;
70270;SDS011;57680;54.292;18.598;2022-09-17T17:08:24;5.03;;;1.50;;
70270;SDS011;57680;54.292;18.598;2022-09-17T17:10:49;5.27;;;1.60;;
70270;SDS011;57680;54.292;18.598;2022-09-17T17:13:15;4.83;;;1.47;;
70270;SDS011;57680;54.292;18.598;2022-09-17T17:15:40;4.30;;;1.40;;
70270;SDS011;57680;54.292;18.598;2022-09-17T17:18:06;7.03;;;1.70;;
70270;SDS011;57680;54.292;18.598;2022-09-17T17:20:33;8.13;;;1.98;;
70270;SDS011;57680;54.292;18.598;2022-09-17T17:23:00;6.03;;;1.90;;
70270;SDS011;57680;54.292;18.598;2022-09-17T17:25:26;6.35;;;1.98;;
70270;SDS011;57680;54.292;18.598;2022-09-17T17:27:52;4.40;;;1.65;;
70270;SDS011;57680;54.292;18.598;2022-09-17T17:30:18;5.97;;;1.80;;
70270;SDS011;57680;54.292;18.598;2022-09-17T17:32:46;5.47;;;2.10;;
70270;SDS011;57680;54.292;18.598;2022-09-17T17:35:14;8.38;;;2.30;;
70270;SDS011;57680;54.292;18.598;2022-09-17T17:37:40;7.78;;;2.47;;
70270;SDS011;57680;54.292;18.598;2022-09-17T17:40:05;8.17;;;2.53;;
70270;SDS011;57680;54.292;18.598;2022-09-17T17:42:34;10.15;;;3.42;;
70270;SDS011;57680;54.292;18.598;2022-09-17T17:45:02;10.18;;;4.03;;
70270;SDS011;57680;54.292;18.598;2022-09-17T17:47:31;12.03;;;4.20;;
70270;SDS011;57680;54.292;18.598;2022-09-17T17:49:57;10.30;;;3.97;;
70270;SDS011;57680;54.292;18.598;2022-09-17T17:52:22;11.27;;;4.03;;
70270;SDS011;57680;54.292;18.598;2022-09-17T17:54:48;11.18;;;4.50;;
70270;SDS011;57680;54.292;18.598;2022-09-17T17:57:14;14.27;;;5.43;;
70270;SDS011;57680;54.292;18.598;2022-09-17T17:59:39;17.90;;;7.90;;
70270;SDS011;57680;54.292;18.598;2022-09-17T18:02:05;14.93;;;6.90;;
70270;SDS011;57680;54.292;18.598;2022-09-17T18:04:31;14.43;;;6.63;;
70270;SDS011;57680;54.292;18.598;2022-09-17T18:06:56;14.57;;;6.67;;
70270;SDS011;57680;54.292;18.598;2022-09-17T18:09:22;13.53;;;6.00;;
70270;SDS011;57680;54.292;18.598;2022-09-17T18:11:47;11.38;;;5.03;;
70270;SDS011;57680;54.292;18.598;2022-09-17T18:14:13;11.47;;;5.30;;
70270;SDS011;57680;54.292;18.598;2022-09-17T18:16:39;9.60;;;4.23;;
70270;SDS011;57680;54.292;18.598;2022-09-17T18:19:04;11.00;;;4.57;;
70270;SDS011;57680;54.292;18.598;2022-09-17T18:21:30;10.32;;;4.20;;